createdAt,value
2022-12-03T00:02:14.150Z,20.35
2022-12-03T00:04:40.613Z,20.34
2022-12-03T00:07:07.011Z,21.17
2022-12-03T00:09:33.467Z,21.81
2022-12-03T00:11:59.906Z,20.95
2022-12-03T00:14:26.335Z,20.13
2022-12-03T00:16:52.777Z,21.42
2022-12-03T00:19:19.178Z,21.39
2022-12-03T00:21:45.606Z,20.97
2022-12-03T00:24:12.044Z,21.31
2022-12-03T00:26:38.519Z,21.52
2022-12-03T00:29:04.940Z,21.98
2022-12-03T00:31:31.422Z,21.76
2022-12-03T00:33:57.986Z,20.33
2022-12-03T00:36:24.384Z,21.25
2022-12-03T00:38:50.856Z,21.15
2022-12-03T00:41:17.271Z,20.60
2022-12-03T00:43:43.723Z,20.71
2022-12-03T00:46:10.301Z,21.20
2022-12-03T00:48:36.733Z,21.11
2022-12-03T00:51:03.182Z,21.40
2022-12-03T00:53:29.620Z,21.44
2022-12-03T00:55:56.031Z,22.02
2022-12-03T00:58:22.470Z,20.90
2022-12-03T01:00:48.893Z,22.21
2022-12-03T01:03:15.322Z,22.69
2022-12-03T01:05:41.775Z,22.44
2022-12-03T01:08:08.306Z,22.85
2022-12-03T01:10:34.736Z,22.40
2022-12-03T01:13:01.176Z,22.91
2022-12-03T01:15:27.609Z,23.18
2022-12-03T01:17:54.041Z,22.77
2022-12-03T01:20:20.483Z,22.73
2022-12-03T01:22:46.923Z,22.73
2022-12-03T01:25:13.375Z,22.52
2022-12-03T01:27:39.799Z,23.00
2022-12-03T01:30:06.255Z,23.07
2022-12-03T01:32:32.691Z,23.55
2022-12-03T01:34:59.093Z,22.79
2022-12-03T01:37:25.563Z,23.64
2022-12-03T01:39:52.033Z,23.11
2022-12-03T01:42:18.490Z,23.10
2022-12-03T01:44:44.950Z,23.35
2022-12-03T01:47:11.391Z,23.52
2022-12-03T01:49:37.844Z,24.02
2022-12-03T01:52:04.267Z,23.23
2022-12-03T01:54:30.686Z,23.85
2022-12-03T01:56:57.109Z,23.38
2022-12-03T01:59:23.533Z,23.57
2022-12-03T02:01:50.000Z,23.78
2022-12-03T02:04:16.604Z,23.84
2022-12-03T02:06:43.087Z,23.00
2022-12-03T02:09:09.533Z,23.79
2022-12-03T02:11:35.957Z,22.96
2022-12-03T02:14:02.383Z,23.43
2022-12-03T02:16:28.947Z,22.90
2022-12-03T02:18:55.440Z,22.61
2022-12-03T02:21:21.863Z,22.20
2022-12-03T02:23:48.291Z,21.76
2022-12-03T02:26:14.713Z,22.18
2022-12-03T02:28:41.145Z,21.82
2022-12-03T02:31:07.613Z,21.79
2022-12-03T02:33:34.051Z,21.50
2022-12-03T02:36:03.536Z,20.31
2022-12-03T02:38:30.421Z,20.81
2022-12-03T02:40:56.897Z,19.04
2022-12-03T02:43:23.310Z,18.77
2022-12-03T02:45:49.765Z,20.02
2022-12-03T02:48:16.222Z,18.83
2022-12-03T02:50:42.663Z,18.33
2022-12-03T02:53:09.103Z,19.08
2022-12-03T02:55:37.368Z,19.08
2022-12-03T02:58:03.970Z,19.66
2022-12-03T03:00:30.431Z,19.72
2022-12-03T03:02:56.948Z,19.92
2022-12-03T03:05:23.381Z,19.63
2022-12-03T03:07:49.873Z,20.14
2022-12-03T03:10:16.375Z,20.86
2022-12-03T03:12:42.853Z,21.68
2022-12-03T03:15:09.298Z,21.83
2022-12-03T03:17:35.722Z,20.22
2022-12-03T03:20:02.182Z,20.72
2022-12-03T03:22:28.594Z,21.28
2022-12-03T03:24:55.169Z,21.03
2022-12-03T03:27:21.968Z,22.14
2022-12-03T03:29:48.365Z,22.84
2022-12-03T03:32:14.798Z,21.90
2022-12-03T03:34:41.248Z,22.91
2022-12-03T03:37:07.713Z,22.84
2022-12-03T03:39:34.166Z,23.50
2022-12-03T03:42:00.613Z,23.04
2022-12-03T03:44:27.038Z,23.21
2022-12-03T03:46:53.472Z,23.58
2022-12-03T03:49:19.908Z,23.91
2022-12-03T03:51:46.370Z,24.49
2022-12-03T03:54:12.795Z,23.66
2022-12-03T03:56:39.242Z,24.60
2022-12-03T03:59:05.686Z,27.16
2022-12-03T04:01:32.231Z,25.16
2022-12-03T04:03:58.850Z,25.44
2022-12-03T04:06:25.296Z,25.05
2022-12-03T04:08:51.711Z,24.90
2022-12-03T04:11:18.129Z,24.96
2022-12-03T04:13:44.544Z,24.38
2022-12-03T04:16:11.029Z,24.95
2022-12-03T04:18:37.476Z,26.20
2022-12-03T04:21:04.010Z,25.82
2022-12-03T04:23:31.137Z,25.68
2022-12-03T04:25:57.660Z,26.82
2022-12-03T04:28:24.090Z,27.93
2022-12-03T04:30:50.559Z,27.00
2022-12-03T04:33:17.047Z,26.47
2022-12-03T04:35:43.550Z,24.88
2022-12-03T04:38:10.006Z,25.72
2022-12-03T04:40:36.454Z,26.29
2022-12-03T04:43:02.868Z,25.61
2022-12-03T04:45:29.260Z,26.44
2022-12-03T04:47:55.728Z,26.54
2022-12-03T04:50:22.170Z,27.48
2022-12-03T04:52:48.588Z,26.07
2022-12-03T04:55:15.033Z,26.88
2022-12-03T04:57:41.466Z,27.34
2022-12-03T05:00:07.916Z,27.18
2022-12-03T05:02:34.419Z,26.30
2022-12-03T05:05:00.922Z,26.53
2022-12-03T05:07:27.437Z,26.26
2022-12-03T05:09:53.854Z,26.60
2022-12-03T05:12:20.260Z,27.33
2022-12-03T05:14:46.708Z,26.10
2022-12-03T05:17:13.161Z,25.78
2022-12-03T05:19:39.647Z,26.17
2022-12-03T05:22:06.062Z,26.35
2022-12-03T05:24:32.484Z,25.69
2022-12-03T05:26:58.906Z,25.94
2022-12-03T05:29:25.318Z,24.69
2022-12-03T05:31:51.750Z,25.65
2022-12-03T05:34:18.187Z,23.76
2022-12-03T05:36:44.597Z,24.64
2022-12-03T05:39:11.034Z,23.36
2022-12-03T05:41:37.471Z,25.09
2022-12-03T05:44:03.906Z,24.06
2022-12-03T05:46:30.381Z,24.01
2022-12-03T05:48:56.875Z,24.09
2022-12-03T05:51:23.294Z,24.48
2022-12-03T05:53:49.751Z,24.60
2022-12-03T05:56:16.232Z,23.18
2022-12-03T05:58:42.634Z,23.37
2022-12-03T06:01:09.103Z,24.16
2022-12-03T06:03:35.632Z,25.40
2022-12-03T06:06:02.181Z,24.51
2022-12-03T06:08:28.601Z,23.95
2022-12-03T06:10:55.018Z,24.51
2022-12-03T06:13:21.520Z,25.84
2022-12-03T06:15:48.003Z,24.00
2022-12-03T06:18:14.455Z,23.35
2022-12-03T06:20:40.975Z,23.67
2022-12-03T06:23:07.396Z,25.73
2022-12-03T06:25:33.804Z,25.03
2022-12-03T06:28:00.267Z,25.60
2022-12-03T06:30:26.702Z,25.37
2022-12-03T06:32:53.106Z,26.28
2022-12-03T06:35:19.537Z,26.00
2022-12-03T06:37:45.972Z,25.64
2022-12-03T06:40:12.391Z,25.99
2022-12-03T06:42:38.850Z,25.75
2022-12-03T06:45:05.283Z,26.23
2022-12-03T06:47:31.742Z,25.96
2022-12-03T06:49:58.186Z,25.55
2022-12-03T06:52:24.599Z,24.58
2022-12-03T06:54:51.233Z,26.67
2022-12-03T06:57:17.756Z,25.69
2022-12-03T06:59:44.205Z,24.91
2022-12-03T07:02:10.683Z,25.35
2022-12-03T07:04:38.387Z,25.83
2022-12-03T07:07:07.373Z,25.01
2022-12-03T07:09:33.802Z,25.72
2022-12-03T07:12:00.231Z,24.83
2022-12-03T07:14:26.686Z,25.49
2022-12-03T07:16:53.143Z,25.40
2022-12-03T07:19:19.591Z,25.37
2022-12-03T07:21:46.029Z,25.87
2022-12-03T07:24:12.489Z,25.61
2022-12-03T07:26:38.942Z,24.45
2022-12-03T07:29:05.365Z,23.83
2022-12-03T07:31:31.956Z,24.23
2022-12-03T07:33:58.402Z,24.01
2022-12-03T07:36:24.816Z,26.66
2022-12-03T07:38:51.303Z,24.03
2022-12-03T07:41:17.743Z,24.80
2022-12-03T07:43:44.168Z,24.51
2022-12-03T07:46:10.625Z,25.99
2022-12-03T07:48:37.064Z,25.19
2022-12-03T07:51:03.500Z,25.29
2022-12-03T07:53:29.928Z,24.90
2022-12-03T07:55:56.371Z,25.24
2022-12-03T07:58:22.831Z,25.03
2022-12-03T08:00:49.348Z,24.07
2022-12-03T08:03:15.803Z,24.65
2022-12-03T08:05:42.205Z,24.60
2022-12-03T08:08:08.644Z,23.63
2022-12-03T08:10:35.107Z,23.81
2022-12-03T08:13:01.559Z,23.60
2022-12-03T08:15:30.198Z,24.67
2022-12-03T08:18:00.213Z,24.58
2022-12-03T08:20:26.661Z,23.43
2022-12-03T08:22:53.086Z,22.75
2022-12-03T08:25:19.494Z,22.31
2022-12-03T08:27:45.923Z,27.86
2022-12-03T08:30:12.360Z,22.74
2022-12-03T08:32:38.784Z,22.38
2022-12-03T08:35:05.200Z,22.72
2022-12-03T08:37:31.654Z,23.67
2022-12-03T08:39:58.081Z,22.98
2022-12-03T08:42:24.497Z,22.56
2022-12-03T08:44:51.065Z,22.37
2022-12-03T08:47:17.567Z,23.83
2022-12-03T08:49:44.007Z,24.42
2022-12-03T08:52:10.466Z,23.24
2022-12-03T08:54:36.881Z,23.09
2022-12-03T08:57:03.291Z,23.42
2022-12-03T08:59:29.718Z,23.55
2022-12-03T09:01:56.138Z,21.84
2022-12-03T09:04:22.692Z,21.27
2022-12-03T09:06:49.198Z,21.88
2022-12-03T09:09:15.605Z,60.01
2022-12-03T09:11:42.058Z,46.11
2022-12-03T09:14:09.800Z,79.84
2022-12-03T09:16:39.055Z,85.68
2022-12-03T09:19:05.587Z,131.15
2022-12-03T09:21:32.024Z,112.99
2022-12-03T09:23:58.465Z,42.81
2022-12-03T09:26:24.867Z,44.93
2022-12-03T09:28:51.318Z,48.99
2022-12-03T09:31:17.780Z,52.74
2022-12-03T09:33:44.342Z,62.73
2022-12-03T09:36:10.772Z,81.50
2022-12-03T09:38:37.226Z,29.17
2022-12-03T09:41:03.703Z,28.20
2022-12-03T09:43:49.547Z,25.98
2022-12-03T09:46:17.002Z,24.17
2022-12-03T09:48:43.511Z,49.28
2022-12-03T09:51:09.983Z,71.99
2022-12-03T09:53:41.053Z,27.73
2022-12-03T09:56:07.908Z,21.98
2022-12-03T09:58:35.095Z,21.84
2022-12-03T10:01:01.700Z,22.24
2022-12-03T10:03:29.996Z,22.02
2022-12-03T10:05:56.638Z,22.70
2022-12-03T10:08:24.503Z,22.59
2022-12-03T10:10:52.494Z,21.99
2022-12-03T10:13:25.319Z,22.19
2022-12-03T10:15:52.149Z,21.68
2022-12-03T10:18:18.571Z,21.65
2022-12-03T10:20:45.019Z,21.35
2022-12-03T10:23:11.443Z,21.79
2022-12-03T10:25:37.921Z,21.26
2022-12-03T10:28:04.355Z,21.10
2022-12-03T10:30:30.923Z,21.16
2022-12-03T10:32:57.403Z,20.26
2022-12-03T10:35:23.867Z,20.40
2022-12-03T10:37:50.296Z,20.70
2022-12-03T10:40:16.742Z,20.12
2022-12-03T10:42:43.208Z,20.56
2022-12-03T10:45:09.631Z,20.46
2022-12-03T10:47:36.291Z,20.48
2022-12-03T10:50:02.820Z,19.68
2022-12-03T10:52:29.258Z,20.76
2022-12-03T10:54:56.067Z,21.72
2022-12-03T10:57:22.684Z,20.94
2022-12-03T10:59:49.119Z,21.77
2022-12-03T11:02:15.574Z,21.74
2022-12-03T11:04:41.995Z,22.86
2022-12-03T11:07:08.432Z,20.82
2022-12-03T11:09:34.882Z,20.46
2022-12-03T11:12:01.367Z,22.19
2022-12-03T11:14:27.772Z,22.79
2022-12-03T11:16:56.550Z,21.29
2022-12-03T11:19:28.790Z,21.28
2022-12-03T11:21:55.215Z,21.23
2022-12-03T11:24:21.634Z,21.30
2022-12-03T11:26:48.052Z,21.23
2022-12-03T11:29:14.460Z,20.87
2022-12-03T11:31:40.949Z,20.48
2022-12-03T11:34:07.460Z,21.56
2022-12-03T11:37:00.515Z,21.79
2022-12-03T11:39:20.453Z,23.24
2022-12-03T11:41:46.871Z,21.33
2022-12-03T11:44:13.280Z,20.45
2022-12-03T11:46:39.772Z,21.59
2022-12-03T11:49:06.266Z,21.31
2022-12-03T11:51:32.729Z,23.11
2022-12-03T11:53:59.142Z,21.97
2022-12-03T11:56:25.559Z,22.37
2022-12-03T11:58:51.982Z,24.28
2022-12-03T12:01:18.429Z,22.85
2022-12-03T12:03:45.038Z,23.92
2022-12-03T12:06:11.564Z,23.31
2022-12-03T12:08:38.027Z,22.60
2022-12-03T12:11:04.439Z,21.26
2022-12-03T12:13:30.862Z,22.33
2022-12-03T12:15:57.332Z,23.87
2022-12-03T12:18:23.772Z,23.40
2022-12-03T12:20:50.213Z,24.87
2022-12-03T12:23:16.621Z,25.62
2022-12-03T12:25:43.035Z,23.52
2022-12-03T12:28:09.504Z,22.98
2022-12-03T12:30:35.942Z,23.63
2022-12-03T12:33:02.378Z,24.62
2022-12-03T12:35:28.811Z,22.73
2022-12-03T12:37:59.536Z,23.18
2022-12-03T12:40:26.901Z,23.48
2022-12-03T12:42:53.334Z,24.70
2022-12-03T12:45:19.773Z,25.57
2022-12-03T12:47:46.292Z,27.62
2022-12-03T12:50:12.776Z,24.91
2022-12-03T12:52:39.284Z,21.08
2022-12-03T12:55:05.730Z,20.30
2022-12-03T12:57:32.183Z,20.96
2022-12-03T12:59:58.615Z,20.62
2022-12-03T13:02:25.121Z,21.06
2022-12-03T13:04:51.583Z,20.84
2022-12-03T13:07:18.012Z,21.37
2022-12-03T13:09:44.461Z,22.67
2022-12-03T13:12:10.898Z,20.06
2022-12-03T13:14:37.324Z,20.55
2022-12-03T13:17:03.762Z,20.95
2022-12-03T13:19:30.195Z,20.82
2022-12-03T13:21:56.606Z,23.42
2022-12-03T13:24:23.082Z,20.43
2022-12-03T13:26:49.526Z,21.49
2022-12-03T13:29:15.965Z,21.39
2022-12-03T13:31:44.318Z,21.31
2022-12-03T13:34:10.917Z,23.81
2022-12-03T13:36:37.328Z,22.74
2022-12-03T13:39:03.770Z,20.80
2022-12-03T13:41:30.204Z,21.00
2022-12-03T13:43:56.673Z,21.12
2022-12-03T13:46:23.257Z,21.28
2022-12-03T13:48:49.776Z,20.41
2022-12-03T13:51:16.175Z,20.91
2022-12-03T13:53:43.016Z,20.66
2022-12-03T13:56:09.466Z,21.24
2022-12-03T13:58:35.938Z,21.26
2022-12-03T14:01:02.518Z,20.82
2022-12-03T14:03:28.978Z,21.20
2022-12-03T14:05:55.411Z,21.61
2022-12-03T14:08:21.942Z,21.38
2022-12-03T14:10:48.435Z,21.24
2022-12-03T14:13:14.822Z,21.63
2022-12-03T14:15:41.238Z,20.99
2022-12-03T14:18:07.671Z,20.26
2022-12-03T14:20:34.069Z,20.87
2022-12-03T14:23:00.487Z,20.73
2022-12-03T14:25:26.960Z,20.75
2022-12-03T14:27:53.398Z,19.82
2022-12-03T14:30:19.845Z,20.74
2022-12-03T14:32:46.275Z,25.68
2022-12-03T14:35:12.669Z,22.16
2022-12-03T14:37:39.082Z,21.87
2022-12-03T14:40:05.502Z,23.47
2022-12-03T14:42:31.987Z,28.19
2022-12-03T14:44:58.413Z,23.55
2022-12-03T14:47:24.844Z,26.21
2022-12-03T14:49:51.711Z,22.70
2022-12-03T14:52:18.379Z,24.87
2022-12-03T14:54:44.817Z,24.71
2022-12-03T14:57:11.244Z,31.39
2022-12-03T14:59:37.684Z,23.88
2022-12-03T15:02:04.251Z,24.25
2022-12-03T15:04:30.711Z,24.81
2022-12-03T15:06:57.163Z,20.77
2022-12-03T15:09:38.671Z,19.79
2022-12-03T15:12:05.089Z,20.84
2022-12-03T15:14:31.569Z,22.42
2022-12-03T15:16:58.119Z,27.40
2022-12-03T15:19:24.650Z,27.08
2022-12-03T15:21:51.078Z,22.60
2022-12-03T15:24:17.552Z,27.17
2022-12-03T15:26:44.011Z,24.16
2022-12-03T15:29:10.569Z,24.61
2022-12-03T15:31:37.053Z,22.54
2022-12-03T15:34:03.522Z,20.27
2022-12-03T15:36:29.937Z,20.64
2022-12-03T15:38:56.378Z,22.53
2022-12-03T15:41:22.852Z,29.44
2022-12-03T15:43:49.286Z,30.28
2022-12-03T15:46:15.766Z,25.82
2022-12-03T15:48:42.247Z,26.16
2022-12-03T15:51:08.682Z,21.73
2022-12-03T15:53:35.099Z,20.91
2022-12-03T15:56:01.546Z,22.15
2022-12-03T15:58:28.019Z,21.66
2022-12-03T16:00:54.467Z,42.25
2022-12-03T16:03:20.965Z,41.44
2022-12-03T16:05:47.448Z,31.31
2022-12-03T16:08:13.895Z,20.14
2022-12-03T16:10:40.348Z,31.23
2022-12-03T16:13:06.781Z,29.87
2022-12-03T16:15:33.258Z,22.18
2022-12-03T16:17:59.704Z,20.08
2022-12-03T16:20:26.120Z,19.33
2022-12-03T16:22:52.513Z,30.67
2022-12-03T16:25:18.941Z,24.31
2022-12-03T16:27:45.394Z,22.13
2022-12-03T16:30:11.800Z,19.05
2022-12-03T16:32:38.232Z,18.93
2022-12-03T16:35:04.632Z,19.74
2022-12-03T16:37:31.038Z,18.61
2022-12-03T16:39:57.598Z,18.82
2022-12-03T16:42:24.158Z,19.01
2022-12-03T16:44:50.603Z,20.17
2022-12-03T16:47:17.023Z,17.43
2022-12-03T16:49:43.458Z,18.72
2022-12-03T16:52:09.904Z,18.65
2022-12-03T16:54:36.318Z,20.98
2022-12-03T16:57:02.765Z,17.23
2022-12-03T16:59:29.234Z,17.14
2022-12-03T17:01:55.735Z,17.21
2022-12-03T17:04:22.224Z,18.15
2022-12-03T17:06:48.636Z,19.26
2022-12-03T17:09:15.175Z,21.66
2022-12-03T17:11:41.629Z,20.70
2022-12-03T17:14:08.036Z,20.05
2022-12-03T17:16:34.500Z,18.36
2022-12-03T17:19:00.965Z,18.23
2022-12-03T17:21:30.868Z,18.16
2022-12-03T17:24:00.131Z,18.55
2022-12-03T17:26:26.580Z,19.67
2022-12-03T17:28:53.005Z,17.52
2022-12-03T17:31:19.506Z,18.12
2022-12-03T17:33:46.002Z,19.36
2022-12-03T17:36:12.444Z,19.22
2022-12-03T17:38:39.585Z,19.25
2022-12-03T17:41:06.065Z,19.17
2022-12-03T17:43:32.467Z,18.96
2022-12-03T17:45:58.923Z,18.29
2022-12-03T17:48:25.393Z,18.56
2022-12-03T17:50:51.842Z,18.41
2022-12-03T17:53:18.278Z,17.51
2022-12-03T17:55:45.344Z,18.78
2022-12-03T17:58:11.818Z,20.22
2022-12-03T18:00:38.370Z,19.42
2022-12-03T18:03:04.778Z,19.89
2022-12-03T18:05:31.196Z,17.20
2022-12-03T18:07:57.792Z,16.96
2022-12-03T18:10:24.329Z,19.53
2022-12-03T18:12:50.738Z,19.19
2022-12-03T18:15:17.153Z,19.06
2022-12-03T18:17:43.687Z,18.57
2022-12-03T18:20:10.093Z,18.34
2022-12-03T18:22:36.518Z,17.79
2022-12-03T18:25:02.956Z,16.64
2022-12-03T18:27:29.384Z,18.47
2022-12-03T18:29:56.179Z,17.33
2022-12-03T18:32:30.313Z,18.56
2022-12-03T18:34:56.888Z,17.32
2022-12-03T18:37:23.319Z,16.87
2022-12-03T18:39:49.719Z,17.72
2022-12-03T18:42:16.146Z,19.59
2022-12-03T18:44:47.907Z,17.85
2022-12-03T18:47:16.084Z,21.23
2022-12-03T18:49:42.563Z,20.44
2022-12-03T18:52:08.981Z,18.20
2022-12-03T18:54:35.420Z,16.93
2022-12-03T18:57:01.864Z,16.39
2022-12-03T18:59:28.282Z,18.17
2022-12-03T19:01:54.750Z,17.27
2022-12-03T19:04:21.228Z,16.19
2022-12-03T19:06:47.658Z,16.14
2022-12-03T19:09:14.141Z,17.39
2022-12-03T19:11:40.569Z,16.71
2022-12-03T19:14:06.984Z,17.30
2022-12-03T19:16:33.588Z,17.15
2022-12-03T19:19:00.043Z,18.03
2022-12-03T19:21:30.712Z,17.30
2022-12-03T19:24:23.256Z,16.97
2022-12-03T19:26:46.338Z,17.85
2022-12-03T19:29:12.773Z,18.04
2022-12-03T19:31:39.279Z,17.51
2022-12-03T19:34:05.727Z,17.12
2022-12-03T19:36:32.151Z,18.01
2022-12-03T19:38:58.555Z,18.07
2022-12-03T19:41:24.979Z,18.90
2022-12-03T19:43:51.415Z,18.34
2022-12-03T19:46:17.957Z,19.08
2022-12-03T19:48:44.457Z,19.11
2022-12-03T19:51:33.187Z,17.93
2022-12-03T19:53:57.263Z,18.50
2022-12-03T19:56:23.660Z,20.53
2022-12-03T19:58:50.071Z,18.78
2022-12-03T20:01:16.583Z,19.17
2022-12-03T20:03:43.007Z,19.18
2022-12-03T20:06:09.492Z,19.41
2022-12-03T20:08:35.904Z,19.60
2022-12-03T20:11:02.418Z,19.96
2022-12-03T20:13:33.527Z,19.70
2022-12-03T20:16:02.898Z,20.25
2022-12-03T20:18:29.421Z,19.86
2022-12-03T20:20:55.875Z,19.72
2022-12-03T20:23:22.278Z,19.15
2022-12-03T20:25:48.681Z,19.70
2022-12-03T20:28:15.100Z,19.47
2022-12-03T20:30:41.554Z,18.96
2022-12-03T20:33:07.950Z,18.86
2022-12-03T20:35:34.351Z,19.73
2022-12-03T20:38:00.788Z,19.66
2022-12-03T20:40:27.254Z,19.91
2022-12-03T20:42:53.721Z,20.23
2022-12-03T20:45:20.159Z,20.21
2022-12-03T20:47:46.605Z,20.16
2022-12-03T20:50:13.028Z,20.26
2022-12-03T20:52:45.257Z,20.39
2022-12-03T20:55:19.251Z,22.81
2022-12-03T20:57:45.727Z,20.73
2022-12-03T21:00:12.142Z,20.62
2022-12-03T21:02:38.600Z,21.16
2022-12-03T21:05:05.063Z,20.48
2022-12-03T21:07:31.533Z,20.17
2022-12-03T21:09:58.140Z,21.01
2022-12-03T21:12:24.591Z,21.82
2022-12-03T21:14:51.027Z,22.01
2022-12-03T21:17:17.463Z,21.37
2022-12-03T21:19:43.923Z,21.54
2022-12-03T21:22:10.333Z,22.74
2022-12-03T21:24:36.747Z,21.66
2022-12-03T21:27:03.199Z,20.87
2022-12-03T21:29:29.608Z,21.06
2022-12-03T21:31:56.039Z,21.84
2022-12-03T21:34:22.469Z,20.62
2022-12-03T21:36:48.897Z,20.11
2022-12-03T21:39:15.402Z,19.73
2022-12-03T21:41:41.947Z,20.13
2022-12-03T21:44:28.347Z,20.50
2022-12-03T21:47:12.342Z,20.99
2022-12-03T21:49:40.320Z,20.26
2022-12-03T21:52:06.763Z,20.55
2022-12-03T21:54:33.214Z,19.52
2022-12-03T21:56:59.677Z,19.14
2022-12-03T21:59:26.120Z,21.73
2022-12-03T22:01:52.626Z,21.15
2022-12-03T22:04:19.114Z,19.65
2022-12-03T22:06:45.534Z,19.28
2022-12-03T22:09:12.028Z,18.81
2022-12-03T22:11:38.443Z,20.50
2022-12-03T22:14:04.904Z,20.28
2022-12-03T22:16:31.412Z,21.20
2022-12-03T22:18:57.883Z,20.76
2022-12-03T22:21:24.334Z,21.39
2022-12-03T22:23:50.909Z,22.84
2022-12-03T22:26:17.317Z,21.00
2022-12-03T22:28:43.745Z,20.19
2022-12-03T22:31:10.281Z,20.14
2022-12-03T22:33:36.781Z,20.38
2022-12-03T22:36:03.301Z,21.07
2022-12-03T22:38:29.768Z,21.14
2022-12-03T22:40:56.195Z,21.01
2022-12-03T22:43:22.620Z,20.75
2022-12-03T22:45:49.058Z,21.26
2022-12-03T22:48:15.493Z,20.75
2022-12-03T22:50:41.898Z,20.30
2022-12-03T22:53:08.339Z,20.68
2022-12-03T22:55:34.764Z,21.87
2022-12-03T22:58:01.250Z,21.37
2022-12-03T23:00:27.696Z,20.96
2022-12-03T23:02:54.156Z,21.07
2022-12-03T23:05:20.604Z,20.94
2022-12-03T23:07:47.086Z,20.82
2022-12-03T23:10:13.559Z,21.76
2022-12-03T23:12:39.984Z,21.16
2022-12-03T23:15:08.574Z,21.14
2022-12-03T23:17:35.013Z,22.98
2022-12-03T23:20:01.472Z,22.11
2022-12-03T23:22:27.974Z,21.46
2022-12-03T23:24:54.437Z,21.47
2022-12-03T23:27:20.875Z,21.54
2022-12-03T23:29:47.312Z,22.96
2022-12-03T23:32:13.730Z,22.12
2022-12-03T23:34:40.212Z,22.42
2022-12-03T23:37:06.699Z,22.59
2022-12-03T23:39:33.117Z,23.26
2022-12-03T23:41:59.566Z,22.36
2022-12-03T23:44:26.051Z,22.14
2022-12-03T23:46:52.532Z,22.69
2022-12-03T23:49:18.997Z,22.91
2022-12-03T23:51:45.429Z,22.99
2022-12-03T23:54:11.880Z,22.75
2022-12-03T23:56:38.303Z,22.91
2022-12-03T23:59:04.702Z,22.74
